createdAt,value
2023-01-25T00:01:42.617Z,3.21
2023-01-25T00:04:09.208Z,3.10
2023-01-25T00:06:35.573Z,3.21
2023-01-25T00:09:02.306Z,3.15
2023-01-25T00:11:28.705Z,3.24
2023-01-25T00:13:55.410Z,3.30
2023-01-25T00:16:22.537Z,3.22
2023-01-25T00:18:49.522Z,3.27
2023-01-25T00:21:19.947Z,3.31
2023-01-25T00:23:46.446Z,3.20
2023-01-25T00:26:12.862Z,3.28
2023-01-25T00:28:39.496Z,3.11
2023-01-25T00:31:07.640Z,3.32
2023-01-25T00:33:40.079Z,3.18
2023-01-25T00:36:31.618Z,3.21
2023-01-25T00:38:58.560Z,3.21
2023-01-25T00:41:25.283Z,3.40
2023-01-25T00:43:51.746Z,3.29
2023-01-25T00:46:18.852Z,3.36
2023-01-25T00:48:45.683Z,3.21
2023-01-25T00:51:12.179Z,3.30
2023-01-25T00:53:38.643Z,3.10
2023-01-25T00:56:05.243Z,3.06
2023-01-25T00:58:31.652Z,2.95
2023-01-25T01:00:58.172Z,2.89
2023-01-25T01:03:24.918Z,2.88
2023-01-25T01:06:02.813Z,2.88
2023-01-25T01:08:29.594Z,2.84
2023-01-25T01:11:04.835Z,2.68
2023-01-25T01:13:32.205Z,2.90
2023-01-25T01:16:02.746Z,2.77
2023-01-25T01:18:34.485Z,3.03
2023-01-25T01:21:00.891Z,2.87
2023-01-25T01:23:29.126Z,2.92
2023-01-25T01:25:55.596Z,2.93
2023-01-25T01:28:22.170Z,3.15
2023-01-25T01:30:48.631Z,3.10
2023-01-25T01:33:15.025Z,3.20
2023-01-25T01:35:41.541Z,3.30
2023-01-25T01:38:07.987Z,3.30
2023-01-25T01:40:34.358Z,3.08
2023-01-25T01:43:06.353Z,3.04
2023-01-25T01:46:03.149Z,3.14
2023-01-25T01:48:44.382Z,3.24
2023-01-25T01:51:23.360Z,3.28
2023-01-25T01:53:58.007Z,3.41
2023-01-25T01:56:56.510Z,3.21
2023-01-25T01:59:27.142Z,3.06
2023-01-25T02:01:54.542Z,3.19
2023-01-25T02:04:24.016Z,3.20
2023-01-25T02:07:18.347Z,3.22
2023-01-25T02:09:45.473Z,3.14
2023-01-25T02:12:13.453Z,3.12
2023-01-25T02:14:48.814Z,3.15
2023-01-25T02:17:15.526Z,3.04
2023-01-25T02:19:57.225Z,2.86
2023-01-25T02:22:32.354Z,2.75
2023-01-25T02:25:06.093Z,2.83
2023-01-25T02:27:38.688Z,2.80
2023-01-25T02:30:05.798Z,2.89
2023-01-25T02:32:33.177Z,2.90
2023-01-25T02:34:59.542Z,2.80
2023-01-25T02:37:26.431Z,2.76
2023-01-25T02:39:53.308Z,2.81
2023-01-25T02:42:19.710Z,2.72
2023-01-25T02:44:47.231Z,2.67
2023-01-25T02:47:13.569Z,2.78
2023-01-25T02:49:40.064Z,2.94
2023-01-25T02:52:06.427Z,3.11
2023-01-25T02:54:33.010Z,3.13
2023-01-25T02:56:59.435Z,2.94
2023-01-25T02:59:25.848Z,2.86
2023-01-25T03:01:52.349Z,2.89
2023-01-25T03:04:18.878Z,2.97
2023-01-25T03:06:45.412Z,3.01
2023-01-25T03:09:12.144Z,3.10
2023-01-25T03:11:38.502Z,2.76
2023-01-25T03:14:05.020Z,2.83
2023-01-25T03:16:32.324Z,2.86
2023-01-25T03:18:58.730Z,2.79
2023-01-25T03:21:25.590Z,2.93
2023-01-25T03:24:01.223Z,2.74
2023-01-25T03:26:28.703Z,2.83
2023-01-25T03:28:55.308Z,2.88
2023-01-25T03:31:21.864Z,2.96
2023-01-25T03:33:48.591Z,2.74
2023-01-25T03:36:15.059Z,2.82
2023-01-25T03:38:41.434Z,2.82
2023-01-25T03:41:09.058Z,2.78
2023-01-25T03:43:35.399Z,3.01
2023-01-25T03:46:02.160Z,2.93
2023-01-25T03:48:29.015Z,3.07
2023-01-25T03:50:57.899Z,2.76
2023-01-25T03:53:32.760Z,2.64
2023-01-25T03:56:02.353Z,2.74
2023-01-25T03:58:30.048Z,2.55
2023-01-25T04:00:58.744Z,2.51
2023-01-25T04:03:25.742Z,2.58
2023-01-25T04:05:53.066Z,2.68
2023-01-25T04:08:20.110Z,2.84
2023-01-25T04:10:57.224Z,2.73
2023-01-25T04:13:24.864Z,2.72
2023-01-25T04:15:51.553Z,2.78
2023-01-25T04:18:19.051Z,2.77
2023-01-25T04:20:45.737Z,2.94
2023-01-25T04:23:12.971Z,2.70
2023-01-25T04:25:39.472Z,2.73
2023-01-25T04:28:06.052Z,2.85
2023-01-25T04:30:32.498Z,2.94
2023-01-25T04:33:03.758Z,3.00
2023-01-25T04:35:30.291Z,3.15
2023-01-25T04:37:57.904Z,3.11
2023-01-25T04:40:24.365Z,3.14
2023-01-25T04:42:50.745Z,3.16
2023-01-25T04:45:17.287Z,2.84
2023-01-25T04:47:43.683Z,2.90
2023-01-25T04:50:10.937Z,3.00
2023-01-25T04:52:37.365Z,2.82
2023-01-25T04:55:03.926Z,2.93
2023-01-25T04:57:30.373Z,2.87
2023-01-25T04:59:56.779Z,3.01
2023-01-25T05:02:23.218Z,2.86
2023-01-25T05:04:49.627Z,2.78
2023-01-25T05:07:16.021Z,2.88
2023-01-25T05:09:42.373Z,2.97
2023-01-25T05:12:11.839Z,2.69
2023-01-25T05:14:38.953Z,2.66
2023-01-25T05:17:09.225Z,2.89
2023-01-25T05:19:35.974Z,2.69
2023-01-25T05:22:07.188Z,2.72
2023-01-25T05:24:35.511Z,3.00
2023-01-25T05:27:05.712Z,2.99
2023-01-25T05:29:40.489Z,3.01
2023-01-25T05:32:08.198Z,3.09
2023-01-25T05:34:35.408Z,2.70
2023-01-25T05:37:03.193Z,2.94
2023-01-25T05:39:29.829Z,2.89
2023-01-25T05:41:56.506Z,2.77
2023-01-25T05:44:23.941Z,2.58
2023-01-25T05:46:50.662Z,2.75
2023-01-25T05:49:18.221Z,2.63
2023-01-25T05:51:45.484Z,2.75
2023-01-25T05:54:14.333Z,2.92
2023-01-25T05:56:41.129Z,2.70
2023-01-25T05:59:07.625Z,2.47
2023-01-25T06:01:34.017Z,2.44
2023-01-25T06:04:00.510Z,2.51
2023-01-25T06:06:26.919Z,2.85
2023-01-25T06:08:53.426Z,2.74
2023-01-25T06:11:22.431Z,2.94
2023-01-25T06:13:49.808Z,2.86
2023-01-25T06:16:18.105Z,2.85
2023-01-25T06:18:44.981Z,2.96
2023-01-25T06:21:11.640Z,3.11
2023-01-25T06:23:38.219Z,2.96
2023-01-25T06:26:07.881Z,2.90
2023-01-25T06:28:35.559Z,3.00
2023-01-25T06:31:16.189Z,2.67
2023-01-25T06:33:43.788Z,2.92
2023-01-25T06:36:16.094Z,2.90
2023-01-25T06:38:42.706Z,2.95
2023-01-25T06:41:12.143Z,2.87
2023-01-25T06:43:39.217Z,2.84
2023-01-25T06:46:08.079Z,2.84
2023-01-25T06:48:35.441Z,2.71
2023-01-25T06:51:05.090Z,2.85
2023-01-25T06:53:33.807Z,2.77
2023-01-25T06:56:02.686Z,2.70
2023-01-25T06:58:30.036Z,2.92
2023-01-25T07:01:02.000Z,2.71
2023-01-25T07:03:29.525Z,2.84
2023-01-25T07:06:04.065Z,2.75
2023-01-25T07:08:30.872Z,2.85
2023-01-25T07:10:59.291Z,2.66
2023-01-25T07:13:26.711Z,2.66
2023-01-25T07:15:57.861Z,2.74
2023-01-25T07:18:25.891Z,2.61
2023-01-25T07:20:52.545Z,2.51
2023-01-25T07:23:20.040Z,2.82
2023-01-25T07:25:50.547Z,2.54
2023-01-25T07:28:17.448Z,2.61
2023-01-25T07:30:43.922Z,2.72
2023-01-25T07:33:10.928Z,2.52
2023-01-25T07:35:37.447Z,2.70
2023-01-25T07:38:04.655Z,2.70
2023-01-25T07:40:31.097Z,2.75
2023-01-25T07:42:58.483Z,2.70
2023-01-25T07:45:30.465Z,2.83
2023-01-25T07:48:00.455Z,2.76
2023-01-25T07:50:28.173Z,2.66
2023-01-25T07:52:55.163Z,2.84
2023-01-25T07:55:22.073Z,2.70
2023-01-25T07:57:48.679Z,2.84
2023-01-25T08:00:15.419Z,2.92
2023-01-25T08:02:41.856Z,2.50
2023-01-25T08:05:09.110Z,2.68
2023-01-25T08:07:35.724Z,2.73
2023-01-25T08:10:02.118Z,2.71
2023-01-25T08:12:28.790Z,2.56
2023-01-25T08:14:55.228Z,2.93
2023-01-25T08:17:21.561Z,2.69
2023-01-25T08:19:47.921Z,2.78
2023-01-25T08:22:14.385Z,2.73
2023-01-25T08:24:40.972Z,3.00
2023-01-25T08:27:07.444Z,2.85
2023-01-25T08:29:33.856Z,2.80
2023-01-25T08:32:00.331Z,2.90
2023-01-25T08:34:26.779Z,2.99
2023-01-25T08:36:53.450Z,2.97
2023-01-25T08:39:20.015Z,2.88
2023-01-25T08:41:46.432Z,3.19
2023-01-25T08:44:13.112Z,3.05
2023-01-25T08:46:39.468Z,2.61
2023-01-25T08:49:06.062Z,2.67
2023-01-25T08:51:32.750Z,2.75
2023-01-25T08:54:07.374Z,2.59
2023-01-25T08:56:36.798Z,2.55
2023-01-25T08:59:03.400Z,2.72
2023-01-25T09:01:29.773Z,2.84
2023-01-25T09:03:56.260Z,2.92
2023-01-25T09:06:22.714Z,2.79
2023-01-25T09:08:49.221Z,2.76
2023-01-25T09:11:21.059Z,2.82
2023-01-25T09:13:48.818Z,2.98
2023-01-25T09:16:18.519Z,2.76
2023-01-25T09:18:45.574Z,2.65
2023-01-25T09:21:14.394Z,2.83
2023-01-25T09:23:50.759Z,2.79
2023-01-25T09:26:24.879Z,2.62
2023-01-25T09:28:52.572Z,2.52
2023-01-25T09:31:22.782Z,2.75
2023-01-25T09:33:51.881Z,2.90
2023-01-25T09:36:19.172Z,2.81
2023-01-25T09:38:45.930Z,2.90
2023-01-25T09:41:31.265Z,2.78
2023-01-25T09:44:22.570Z,2.72
2023-01-25T09:46:56.468Z,3.05
2023-01-25T09:49:47.827Z,2.68
2023-01-25T09:52:49.009Z,2.75
2023-01-25T09:55:18.973Z,2.77
2023-01-25T09:57:48.118Z,2.91
2023-01-25T10:00:17.909Z,2.88
2023-01-25T10:03:05.990Z,3.04
2023-01-25T10:05:42.630Z,2.69
2023-01-25T10:08:31.757Z,2.87
2023-01-25T10:11:04.718Z,2.78
2023-01-25T10:13:31.968Z,2.74
2023-01-25T10:16:24.571Z,2.57
2023-01-25T10:19:01.143Z,2.78
2023-01-25T10:21:37.295Z,2.68
2023-01-25T10:24:21.819Z,2.57
2023-01-25T10:26:56.644Z,2.84
2023-01-25T10:29:27.786Z,2.81
2023-01-25T10:32:11.759Z,2.74
2023-01-25T10:34:55.884Z,2.84
2023-01-25T10:37:27.645Z,2.74
2023-01-25T10:40:15.025Z,2.68
2023-01-25T10:42:46.246Z,2.74
2023-01-25T10:45:14.985Z,2.68
2023-01-25T10:47:48.497Z,2.75
2023-01-25T10:50:42.849Z,2.67
2023-01-25T10:53:29.697Z,2.68
2023-01-25T10:56:03.288Z,2.50
2023-01-25T10:58:38.905Z,2.57
2023-01-25T11:01:08.911Z,2.73
2023-01-25T11:03:44.762Z,2.55
2023-01-25T11:06:11.151Z,2.70
2023-01-25T11:08:40.033Z,2.91
2023-01-25T11:11:23.281Z,2.83
2023-01-25T11:13:49.870Z,2.82
2023-01-25T11:16:20.219Z,2.82
2023-01-25T11:18:52.809Z,2.87
2023-01-25T11:21:28.195Z,3.04
2023-01-25T11:24:00.375Z,2.82
2023-01-25T11:26:27.295Z,2.88
2023-01-25T11:29:12.262Z,2.82
2023-01-25T11:31:45.318Z,2.72
2023-01-25T11:34:14.815Z,3.00
2023-01-25T11:36:48.905Z,2.60
2023-01-25T11:39:40.270Z,2.52
2023-01-25T11:42:15.787Z,2.76
2023-01-25T11:45:01.212Z,2.67
2023-01-25T11:47:54.867Z,2.90
2023-01-25T11:50:39.035Z,2.68
2023-01-25T11:53:29.953Z,2.83
2023-01-25T11:56:22.229Z,2.77
2023-01-25T11:58:58.690Z,2.73
2023-01-25T12:01:46.563Z,2.47
2023-01-25T12:04:39.403Z,2.46
2023-01-25T12:07:13.547Z,2.77
2023-01-25T12:10:15.029Z,3.02
2023-01-25T12:12:41.924Z,2.87
2023-01-25T12:15:14.347Z,2.59
2023-01-25T12:18:01.478Z,2.68
2023-01-25T12:20:40.471Z,2.57
2023-01-25T12:23:37.925Z,2.72
2023-01-25T12:26:30.489Z,2.74
2023-01-25T12:29:12.083Z,2.66
2023-01-25T12:31:54.887Z,2.70
2023-01-25T12:34:31.158Z,2.86
2023-01-25T12:37:03.257Z,2.61
2023-01-25T12:39:37.707Z,2.79
2023-01-25T12:42:16.982Z,2.66
2023-01-25T12:44:58.314Z,2.70
2023-01-25T12:47:37.999Z,2.59
2023-01-25T12:50:15.865Z,2.81
2023-01-25T12:52:51.006Z,3.01
2023-01-25T12:55:18.480Z,3.00
2023-01-25T12:58:11.450Z,2.95
2023-01-25T13:00:53.036Z,2.73
2023-01-25T13:03:42.640Z,2.83
2023-01-25T13:06:26.075Z,2.57
2023-01-25T13:09:07.985Z,2.45
2023-01-25T13:11:43.170Z,2.73
2023-01-25T13:14:15.412Z,2.40
2023-01-25T13:16:50.258Z,2.53
2023-01-25T13:19:19.509Z,2.46
2023-01-25T13:21:48.040Z,2.69
2023-01-25T13:24:21.060Z,2.98
2023-01-25T13:26:50.809Z,2.92
2023-01-25T13:29:32.326Z,2.94
2023-01-25T13:31:59.762Z,3.27
2023-01-25T13:34:39.158Z,2.94
2023-01-25T13:37:25.238Z,2.92
2023-01-25T13:39:56.900Z,2.85
2023-01-25T13:42:25.411Z,2.40
2023-01-25T13:45:04.248Z,2.30
2023-01-25T13:47:38.008Z,2.49
2023-01-25T13:50:25.707Z,2.41
2023-01-25T13:53:03.897Z,2.48
2023-01-25T13:55:40.108Z,2.44
2023-01-25T13:58:21.585Z,2.58
2023-01-25T14:01:00.071Z,2.57
2023-01-25T14:03:30.659Z,2.68
2023-01-25T14:06:00.534Z,2.41
2023-01-25T14:08:28.107Z,2.24
2023-01-25T14:10:55.314Z,2.40
2023-01-25T14:13:21.868Z,2.57
2023-01-25T14:16:04.230Z,2.31
2023-01-25T14:18:33.281Z,2.45
2023-01-25T14:21:19.056Z,2.74
2023-01-25T14:23:45.806Z,2.64
2023-01-25T14:26:28.299Z,2.75
2023-01-25T14:29:01.440Z,2.77
2023-01-25T14:31:35.406Z,2.92
2023-01-25T14:34:04.227Z,2.87
2023-01-25T14:36:34.205Z,2.77
2023-01-25T14:39:02.064Z,2.65
2023-01-25T14:41:37.101Z,2.50
2023-01-25T14:44:10.531Z,2.80
2023-01-25T14:46:38.378Z,2.97
2023-01-25T14:49:26.860Z,2.98
2023-01-25T14:52:03.296Z,2.72
2023-01-25T14:54:34.245Z,2.75
2023-01-25T14:57:06.356Z,2.67
2023-01-25T14:59:37.664Z,2.80
2023-01-25T15:02:25.167Z,2.63
2023-01-25T15:05:02.804Z,2.79
2023-01-25T15:07:50.575Z,2.82
2023-01-25T15:10:17.031Z,2.86
2023-01-25T15:13:21.316Z,2.85
2023-01-25T15:15:59.645Z,3.08
2023-01-25T15:18:44.526Z,2.86
2023-01-25T15:21:13.798Z,2.46
2023-01-25T15:23:42.258Z,2.44
2023-01-25T15:26:19.404Z,2.30
2023-01-25T15:28:46.294Z,2.60
2023-01-25T15:31:36.974Z,2.47
2023-01-25T15:34:04.496Z,2.20
2023-01-25T15:36:32.801Z,2.26
2023-01-25T15:38:59.920Z,2.42
2023-01-25T15:41:26.309Z,2.30
2023-01-25T15:43:52.770Z,2.21
2023-01-25T15:46:26.159Z,2.27
2023-01-25T15:48:53.414Z,2.34
2023-01-25T15:51:21.032Z,2.33
2023-01-25T15:53:47.783Z,2.25
2023-01-25T15:56:18.168Z,2.42
2023-01-25T15:58:49.282Z,2.20
2023-01-25T16:01:15.903Z,2.38
2023-01-25T16:03:42.496Z,2.43
2023-01-25T16:06:28.367Z,2.25
2023-01-25T16:08:54.759Z,2.28
2023-01-25T16:11:21.131Z,2.37
2023-01-25T16:13:47.958Z,2.19
2023-01-25T16:16:20.938Z,2.06
2023-01-25T16:18:47.797Z,1.89
2023-01-25T16:21:14.750Z,1.98
2023-01-25T16:23:42.648Z,2.11
2023-01-25T16:26:24.485Z,2.14
2023-01-25T16:28:51.162Z,2.20
2023-01-25T16:31:31.250Z,2.36
2023-01-25T16:33:58.963Z,2.48
2023-01-25T16:36:25.405Z,2.77
2023-01-25T16:38:52.086Z,2.73
2023-01-25T16:41:18.764Z,2.53
2023-01-25T16:43:47.980Z,2.55
2023-01-25T16:46:16.229Z,2.59
2023-01-25T16:48:43.389Z,2.64
2023-01-25T16:51:16.973Z,2.66
2023-01-25T16:53:43.879Z,2.64
2023-01-25T16:56:21.323Z,2.84
2023-01-25T16:58:48.950Z,2.75
2023-01-25T17:01:17.755Z,2.82
2023-01-25T17:03:44.443Z,3.01
2023-01-25T17:06:18.910Z,2.85
2023-01-25T17:08:48.987Z,2.75
2023-01-25T17:11:18.600Z,2.77
2023-01-25T17:13:50.220Z,2.51
2023-01-25T17:16:17.987Z,2.73
2023-01-25T17:18:44.769Z,2.88
2023-01-25T17:21:14.474Z,2.61
2023-01-25T17:23:41.873Z,2.80
2023-01-25T17:26:11.321Z,2.48
2023-01-25T17:28:37.715Z,2.75
2023-01-25T17:31:04.752Z,2.60
2023-01-25T17:33:32.083Z,2.77
2023-01-25T17:36:02.702Z,2.59
2023-01-25T17:38:29.250Z,2.53
2023-01-25T17:40:55.710Z,2.43
2023-01-25T17:43:22.349Z,2.53
2023-01-25T17:45:48.738Z,2.46
2023-01-25T17:48:15.164Z,1.99
2023-01-25T17:50:41.511Z,2.05
2023-01-25T17:53:08.037Z,1.96
2023-01-25T17:55:36.206Z,1.97
2023-01-25T17:58:03.785Z,2.22
2023-01-25T18:00:30.276Z,2.18
2023-01-25T18:02:58.376Z,2.29
2023-01-25T18:05:27.182Z,2.21
2023-01-25T18:07:53.778Z,2.41
2023-01-25T18:10:20.134Z,2.11
2023-01-25T18:13:03.609Z,2.13
2023-01-25T18:15:30.805Z,2.35
2023-01-25T18:17:58.312Z,2.09
2023-01-25T18:20:24.711Z,2.09
2023-01-25T18:22:51.120Z,2.12
2023-01-25T18:25:35.520Z,2.21
2023-01-25T18:28:02.222Z,2.24
2023-01-25T18:30:50.356Z,2.38
2023-01-25T18:33:16.801Z,2.35
2023-01-25T18:35:43.894Z,2.32
2023-01-25T18:38:10.618Z,2.30
2023-01-25T18:40:37.914Z,2.49
2023-01-25T18:43:04.301Z,2.41
2023-01-25T18:45:30.626Z,2.38
2023-01-25T18:47:57.025Z,2.42
2023-01-25T18:50:23.783Z,2.42
2023-01-25T18:52:51.640Z,2.55
2023-01-25T18:55:18.152Z,2.73
2023-01-25T18:57:44.545Z,2.55
2023-01-25T19:00:14.582Z,2.40
2023-01-25T19:02:40.977Z,2.41
2023-01-25T19:05:08.405Z,2.51
2023-01-25T19:07:36.493Z,2.17
2023-01-25T19:10:03.731Z,2.20
2023-01-25T19:12:30.326Z,2.06
2023-01-25T19:14:58.003Z,2.06
2023-01-25T19:17:24.394Z,2.11
2023-01-25T19:19:50.810Z,2.24
2023-01-25T19:22:17.224Z,2.05
2023-01-25T19:24:43.658Z,2.25
2023-01-25T19:27:10.085Z,2.17
2023-01-25T19:29:36.797Z,2.24
2023-01-25T19:32:03.146Z,2.35
2023-01-25T19:34:29.547Z,2.23
2023-01-25T19:36:57.239Z,2.25
2023-01-25T19:39:23.663Z,2.31
2023-01-25T19:41:51.931Z,2.25
2023-01-25T19:44:18.363Z,2.26
2023-01-25T19:46:44.845Z,2.41
2023-01-25T19:49:13.231Z,2.41
2023-01-25T19:51:42.579Z,2.32
2023-01-25T19:54:16.460Z,1.92
2023-01-25T19:56:45.492Z,2.13
2023-01-25T19:59:14.869Z,2.34
2023-01-25T20:01:43.845Z,2.33
2023-01-25T20:04:12.418Z,2.17
2023-01-25T20:06:38.782Z,2.15
2023-01-25T20:09:05.209Z,2.08
2023-01-25T20:11:33.121Z,2.63
2023-01-25T20:14:03.097Z,2.45
2023-01-25T20:16:32.145Z,2.40
2023-01-25T20:18:59.620Z,2.46
2023-01-25T20:21:27.758Z,2.24
2023-01-25T20:23:58.112Z,2.32
2023-01-25T20:26:27.278Z,2.35
2023-01-25T20:28:55.935Z,2.31
2023-01-25T20:31:23.952Z,2.68
2023-01-25T20:33:52.841Z,2.54
2023-01-25T20:36:19.323Z,2.53
2023-01-25T20:38:46.271Z,2.67
2023-01-25T20:41:15.518Z,2.55
2023-01-25T20:43:47.966Z,2.47
2023-01-25T20:46:15.280Z,2.40
2023-01-25T20:48:41.967Z,2.64
2023-01-25T20:51:12.699Z,2.33
2023-01-25T20:53:39.879Z,2.65
2023-01-25T20:56:07.838Z,2.42
2023-01-25T20:58:34.191Z,2.33
2023-01-25T21:01:01.258Z,2.20
2023-01-25T21:03:29.970Z,2.33
2023-01-25T21:05:58.519Z,2.27
2023-01-25T21:08:25.953Z,2.20
2023-01-25T21:10:57.910Z,2.07
2023-01-25T21:13:25.435Z,2.24
2023-01-25T21:16:05.358Z,2.27
2023-01-25T21:18:39.816Z,2.08
2023-01-25T21:21:09.037Z,2.02
2023-01-25T21:23:37.411Z,2.23
2023-01-25T21:26:05.602Z,2.17
2023-01-25T21:28:33.393Z,2.25
2023-01-25T21:31:08.094Z,2.36
2023-01-25T21:33:34.697Z,2.28
2023-01-25T21:36:01.570Z,2.65
2023-01-25T21:38:28.023Z,2.27
2023-01-25T21:41:00.965Z,2.18
2023-01-25T21:43:27.461Z,2.07
2023-01-25T21:46:12.515Z,2.30
2023-01-25T21:48:57.195Z,2.14
2023-01-25T21:51:35.486Z,2.11
2023-01-25T21:54:02.030Z,1.82
2023-01-25T21:56:29.266Z,1.78
2023-01-25T21:58:55.639Z,1.96
2023-01-25T22:01:22.918Z,2.48
2023-01-25T22:03:50.696Z,2.17
2023-01-25T22:06:18.567Z,2.11
2023-01-25T22:08:45.530Z,2.46
2023-01-25T22:11:12.564Z,2.23
2023-01-25T22:13:40.057Z,1.93
2023-01-25T22:16:08.613Z,1.94
2023-01-25T22:18:40.095Z,2.10
2023-01-25T22:21:14.948Z,1.96
2023-01-25T22:23:41.438Z,2.03
2023-01-25T22:26:10.522Z,2.08
2023-01-25T22:28:48.861Z,2.06
2023-01-25T22:31:26.885Z,2.05
2023-01-25T22:33:54.511Z,2.14
2023-01-25T22:36:23.445Z,2.05
2023-01-25T22:38:50.519Z,2.02
2023-01-25T22:41:25.779Z,2.08
2023-01-25T22:43:53.030Z,2.05
2023-01-25T22:46:22.219Z,2.21
2023-01-25T22:48:48.670Z,2.07
2023-01-25T22:51:17.654Z,2.01
2023-01-25T22:53:44.421Z,1.86
2023-01-25T22:56:19.054Z,2.08
2023-01-25T22:58:47.293Z,2.01
2023-01-25T23:01:16.017Z,2.22
2023-01-25T23:03:42.631Z,2.24
2023-01-25T23:06:13.197Z,2.33
2023-01-25T23:08:40.187Z,2.52
2023-01-25T23:11:14.847Z,2.16
2023-01-25T23:13:41.897Z,2.16
2023-01-25T23:16:09.858Z,2.03
2023-01-25T23:18:51.643Z,2.17
2023-01-25T23:21:21.248Z,2.11
2023-01-25T23:23:48.357Z,2.32
2023-01-25T23:26:16.301Z,2.22
2023-01-25T23:28:42.769Z,2.45
2023-01-25T23:31:17.944Z,2.52
2023-01-25T23:33:50.203Z,2.24
2023-01-25T23:36:19.439Z,2.12
2023-01-25T23:38:46.543Z,2.18
2023-01-25T23:41:14.425Z,2.01
2023-01-25T23:43:41.693Z,2.11
2023-01-25T23:46:08.723Z,2.54
2023-01-25T23:48:35.678Z,2.07
2023-01-25T23:51:02.598Z,1.87
2023-01-25T23:53:31.468Z,1.96
2023-01-25T23:56:00.936Z,1.93
2023-01-25T23:58:28.829Z,1.84
